createdAt,value
2024-05-09T00:01:51.933Z,15.00
2024-05-09T00:04:22.525Z,15.10
2024-05-09T00:06:52.970Z,15.20
2024-05-09T00:09:23.341Z,15.20
2024-05-09T00:11:56.935Z,15.20
2024-05-09T00:14:27.463Z,15.20
2024-05-09T00:17:00.734Z,15.10
2024-05-09T00:19:31.370Z,15.10
2024-05-09T00:22:01.872Z,14.90
2024-05-09T00:24:32.254Z,14.90
2024-05-09T00:27:02.753Z,14.90
2024-05-09T00:29:33.181Z,15.00
2024-05-09T00:32:06.522Z,15.00
2024-05-09T00:34:37.049Z,15.00
2024-05-09T00:37:10.548Z,14.90
2024-05-09T00:39:41.058Z,14.90
2024-05-09T00:42:11.625Z,15.00
2024-05-09T00:44:42.103Z,14.90
2024-05-09T00:47:16.544Z,15.00
2024-05-09T00:49:47.462Z,15.00
2024-05-09T00:52:18.047Z,14.90
2024-05-09T00:54:48.469Z,14.70
2024-05-09T00:57:20.492Z,14.40
2024-05-09T00:59:51.363Z,14.30
2024-05-09T01:02:34.728Z,14.00
2024-05-09T01:05:05.644Z,13.90
2024-05-09T01:07:36.077Z,13.90
2024-05-09T01:10:11.732Z,14.00
2024-05-09T01:12:47.453Z,14.00
2024-05-09T01:15:17.987Z,14.00
2024-05-09T01:17:51.819Z,13.90
2024-05-09T01:20:31.818Z,13.80
2024-05-09T01:23:14.748Z,13.80
2024-05-09T01:25:47.234Z,13.70
2024-05-09T01:28:17.795Z,13.70
2024-05-09T01:30:48.133Z,13.60
2024-05-09T01:33:18.743Z,13.70
2024-05-09T01:35:49.148Z,13.80
2024-05-09T01:38:22.458Z,14.00
2024-05-09T01:41:02.385Z,13.90
2024-05-09T01:43:35.627Z,14.00
2024-05-09T01:46:06.021Z,14.10
2024-05-09T01:48:36.757Z,14.10
2024-05-09T01:51:07.680Z,14.10
2024-05-09T01:53:40.979Z,14.10
2024-05-09T01:56:12.663Z,14.20
2024-05-09T01:58:43.091Z,14.20
2024-05-09T02:01:13.573Z,14.30
2024-05-09T02:03:44.035Z,14.30
2024-05-09T02:06:14.525Z,14.30
2024-05-09T02:08:49.271Z,14.30
2024-05-09T02:11:19.689Z,14.30
2024-05-09T02:13:50.156Z,14.20
2024-05-09T02:16:20.566Z,14.10
2024-05-09T02:18:51.481Z,14.20
2024-05-09T02:21:21.973Z,14.20
2024-05-09T02:23:54.966Z,14.20
2024-05-09T02:26:25.412Z,14.20
2024-05-09T02:28:55.880Z,14.10
2024-05-09T02:31:26.290Z,14.00
2024-05-09T02:33:56.904Z,13.90
2024-05-09T02:36:27.376Z,14.00
2024-05-09T02:38:57.857Z,14.00
2024-05-09T02:41:28.479Z,14.00
2024-05-09T02:43:56.308Z,13.80
2024-05-09T02:46:26.691Z,13.80
2024-05-09T02:48:54.593Z,13.80
2024-05-09T02:51:25.126Z,13.80
2024-05-09T02:53:52.957Z,13.80
2024-05-09T02:56:26.064Z,13.80
2024-05-09T02:58:53.916Z,13.60
2024-05-09T03:01:24.331Z,13.60
2024-05-09T03:03:52.412Z,13.60
2024-05-09T03:06:25.303Z,13.70
2024-05-09T03:08:53.243Z,13.70
2024-05-09T03:11:29.694Z,13.70
2024-05-09T03:13:57.741Z,13.70
2024-05-09T03:16:28.208Z,13.70
2024-05-09T03:18:56.278Z,13.70
2024-05-09T03:21:26.692Z,13.70
2024-05-09T03:23:54.484Z,13.60
2024-05-09T03:26:25.007Z,13.60
2024-05-09T03:28:55.460Z,13.40
2024-05-09T03:31:25.892Z,13.10
2024-05-09T03:33:53.758Z,12.90
2024-05-09T03:36:24.186Z,12.80
2024-05-09T03:38:54.562Z,12.70
2024-05-09T03:41:25.060Z,12.70
2024-05-09T03:43:58.374Z,12.70
2024-05-09T03:46:26.119Z,12.70
2024-05-09T03:48:56.566Z,12.80
2024-05-09T03:51:24.388Z,12.90
2024-05-09T03:53:54.763Z,13.10
2024-05-09T03:56:22.604Z,13.00
2024-05-09T03:58:53.020Z,13.00
2024-05-09T04:01:25.293Z,12.80
2024-05-09T04:03:55.843Z,12.70
2024-05-09T04:06:25.793Z,12.70
2024-05-09T04:08:56.396Z,12.60
2024-05-09T04:11:24.180Z,12.70
2024-05-09T04:13:54.687Z,12.80
2024-05-09T04:16:25.156Z,12.80
2024-05-09T04:18:55.639Z,12.90
2024-05-09T04:21:23.401Z,12.90
2024-05-09T04:23:53.782Z,12.60
2024-05-09T04:26:24.203Z,12.40
2024-05-09T04:28:52.023Z,12.40
2024-05-09T04:31:22.446Z,12.40
2024-05-09T04:33:53.097Z,12.50
2024-05-09T04:36:23.545Z,12.50
2024-05-09T04:38:51.262Z,12.60
2024-05-09T04:41:21.624Z,12.60
2024-05-09T04:43:51.051Z,12.80
2024-05-09T04:46:21.507Z,12.80
2024-05-09T04:48:53.809Z,12.90
2024-05-09T04:51:24.270Z,13.00
2024-05-09T04:58:50.709Z,13.10
2024-05-09T05:01:24.227Z,13.20
2024-05-09T05:03:59.839Z,13.20
2024-05-09T05:06:30.665Z,13.00
2024-05-09T05:08:58.435Z,12.90
2024-05-09T05:11:29.029Z,12.90
2024-05-09T05:13:57.131Z,12.90
2024-05-09T05:16:27.573Z,13.00
2024-05-09T05:18:58.135Z,13.10
2024-05-09T05:21:28.865Z,13.20
2024-05-09T05:24:07.717Z,13.30
2024-05-09T05:26:39.222Z,13.30
2024-05-09T05:29:07.077Z,13.30
2024-05-09T05:31:37.541Z,13.40
2024-05-09T05:34:08.122Z,13.40
2024-05-09T05:36:38.540Z,13.40
2024-05-09T05:39:06.320Z,13.40
2024-05-09T05:41:36.802Z,13.50
2024-05-09T05:44:07.327Z,13.30
2024-05-09T05:46:35.131Z,13.30
2024-05-09T05:49:05.941Z,13.40
2024-05-09T05:51:36.387Z,13.40
2024-05-09T05:54:06.795Z,13.50
2024-05-09T05:56:34.620Z,13.50
2024-05-09T05:59:05.153Z,13.60
2024-05-09T06:01:33.014Z,13.60
2024-05-09T06:04:03.562Z,13.50
2024-05-09T06:06:31.548Z,13.40
2024-05-09T06:09:04.567Z,13.40
2024-05-09T06:11:32.468Z,13.50
2024-05-09T06:14:05.540Z,13.60
2024-05-09T06:16:33.444Z,13.60
2024-05-09T06:19:04.068Z,13.60
2024-05-09T06:21:31.881Z,13.70
2024-05-09T06:24:06.732Z,13.80
2024-05-09T06:26:34.706Z,13.90
2024-05-09T06:29:05.366Z,13.80
2024-05-09T06:31:33.072Z,13.90
2024-05-09T06:34:06.394Z,13.90
2024-05-09T06:36:40.507Z,14.00
2024-05-09T06:39:18.855Z,14.10
2024-05-09T06:41:46.625Z,14.10
2024-05-09T06:44:17.040Z,14.20
2024-05-09T06:46:45.607Z,14.20
2024-05-09T06:49:16.395Z,14.30
2024-05-09T06:51:44.183Z,14.40
2024-05-09T06:54:18.492Z,14.30
2024-05-09T06:56:46.242Z,14.40
2024-05-09T06:59:16.730Z,14.50
2024-05-09T07:01:44.851Z,14.50
2024-05-09T07:04:15.602Z,14.60
2024-05-09T07:06:43.606Z,14.60
2024-05-09T07:09:16.647Z,14.70
2024-05-09T07:11:44.550Z,14.70
2024-05-09T07:14:16.276Z,14.80
2024-05-09T07:16:46.946Z,14.80
2024-05-09T07:19:20.188Z,14.90
2024-05-09T07:21:48.313Z,15.00
2024-05-09T07:24:21.402Z,15.00
2024-05-09T07:26:49.257Z,15.10
2024-05-09T07:29:19.759Z,15.10
2024-05-09T07:31:47.585Z,15.20
2024-05-09T07:34:18.248Z,15.20
2024-05-09T07:36:49.018Z,15.30
2024-05-09T07:39:25.182Z,15.30
2024-05-09T07:41:52.925Z,15.40
2024-05-09T07:44:23.365Z,15.50
2024-05-09T07:47:52.332Z,15.60
2024-05-09T07:51:32.255Z,15.60
2024-05-09T07:53:32.557Z,15.60
2024-05-09T07:55:22.596Z,15.70
2024-05-09T07:57:50.532Z,15.80
2024-05-09T08:00:29.487Z,15.80
2024-05-09T08:02:59.446Z,15.90
2024-05-09T08:05:29.968Z,16.00
2024-05-09T08:07:57.783Z,16.10
2024-05-09T08:10:31.031Z,16.20
2024-05-09T08:12:58.859Z,16.20
2024-05-09T08:15:29.486Z,16.30
2024-05-09T08:17:57.474Z,16.30
2024-05-09T08:20:33.461Z,16.30
2024-05-09T08:23:05.541Z,16.40
2024-05-09T08:25:38.845Z,16.50
2024-05-09T08:28:07.279Z,16.60
2024-05-09T08:30:38.422Z,16.70
2024-05-09T08:33:07.793Z,16.70
2024-05-09T08:35:40.244Z,16.90
2024-05-09T08:38:08.402Z,17.00
2024-05-09T08:40:41.740Z,17.10
2024-05-09T08:43:12.096Z,17.10
2024-05-09T08:45:45.059Z,17.20
2024-05-09T08:48:15.740Z,17.30
2024-05-09T08:50:47.103Z,17.40
2024-05-09T08:53:15.466Z,17.50
2024-05-09T08:55:49.831Z,17.60
2024-05-09T08:58:21.559Z,17.70
2024-05-09T09:00:52.158Z,17.70
2024-05-09T09:03:23.000Z,17.80
2024-05-09T09:06:01.923Z,17.80
2024-05-09T09:08:29.886Z,17.90
2024-05-09T09:11:05.981Z,17.90
2024-05-09T09:13:33.737Z,17.90
2024-05-09T09:16:04.359Z,18.00
2024-05-09T09:18:33.239Z,18.00
2024-05-09T09:21:05.894Z,18.10
2024-05-09T09:23:34.399Z,18.10
2024-05-09T09:26:07.618Z,18.20
2024-05-09T09:28:37.439Z,18.30
2024-05-09T09:31:14.082Z,18.40
2024-05-09T09:33:43.204Z,18.50
2024-05-09T09:36:14.583Z,18.50
2024-05-09T09:38:42.600Z,18.50
2024-05-09T09:41:16.456Z,18.50
2024-05-09T09:43:44.630Z,18.60
2024-05-09T09:46:18.294Z,18.80
2024-05-09T09:48:50.613Z,18.90
2024-05-09T09:51:21.860Z,19.10
2024-05-09T09:53:52.824Z,19.20
2024-05-09T09:56:27.135Z,19.30
2024-05-09T09:58:58.018Z,19.40
2024-05-09T14:00:38.145Z,23.00
2024-05-09T14:03:12.059Z,23.00
2024-05-09T14:05:43.365Z,23.10
2024-05-09T14:08:11.643Z,23.10
2024-05-09T14:10:44.768Z,23.20
2024-05-09T14:13:13.353Z,23.20
2024-05-09T14:15:46.974Z,23.20
2024-05-09T14:18:15.167Z,23.30
2024-05-09T14:20:45.726Z,23.50
2024-05-09T14:23:13.758Z,23.90
2024-05-09T14:25:45.971Z,24.80
2024-05-09T14:28:15.207Z,26.00
2024-05-09T14:30:48.367Z,27.30
2024-05-09T14:33:20.814Z,28.50
2024-05-09T14:35:51.456Z,29.40
2024-05-09T14:38:21.125Z,29.90
2024-05-09T14:40:51.803Z,30.30
2024-05-09T14:43:21.916Z,29.90
2024-05-09T14:45:56.122Z,29.10
2024-05-09T14:48:27.254Z,28.90
2024-05-09T14:51:00.722Z,29.30
2024-05-09T14:53:28.627Z,30.00
2024-05-09T14:55:59.274Z,30.60
2024-05-09T14:58:27.326Z,31.20
2024-05-09T15:01:00.573Z,31.60
2024-05-09T15:03:28.590Z,32.00
2024-05-09T15:05:59.625Z,32.00
2024-05-09T15:08:27.670Z,32.00
2024-05-09T15:11:00.992Z,32.00
2024-05-09T15:13:29.120Z,32.10
2024-05-09T15:16:02.460Z,31.90
2024-05-09T15:18:30.544Z,31.30
2024-05-09T15:21:01.389Z,30.60
2024-05-09T15:23:29.120Z,30.00
2024-05-09T15:25:59.530Z,29.20
2024-05-09T15:28:27.431Z,28.70
2024-05-09T15:31:03.723Z,28.10
2024-05-09T15:33:31.665Z,27.50
2024-05-09T15:36:02.554Z,27.00
2024-05-09T15:38:30.472Z,26.70
2024-05-09T15:41:01.038Z,26.30
2024-05-09T15:43:28.843Z,26.00
2024-05-09T15:45:59.441Z,25.70
2024-05-09T15:48:30.201Z,25.50
2024-05-09T15:51:00.988Z,25.20
2024-05-09T15:53:31.628Z,25.00
2024-05-09T15:55:59.410Z,24.80
2024-05-09T15:58:32.343Z,24.60
2024-05-09T16:01:03.460Z,24.50
2024-05-09T16:03:37.046Z,24.40
2024-05-09T16:06:05.720Z,24.20
2024-05-09T16:08:36.830Z,24.00
2024-05-09T16:11:05.543Z,23.90
2024-05-09T16:13:36.161Z,23.80
2024-05-09T16:16:04.666Z,23.70
2024-05-09T16:18:37.834Z,23.70
2024-05-09T16:21:06.204Z,23.60
2024-05-09T16:23:43.695Z,23.60
2024-05-09T16:26:13.268Z,23.50
2024-05-09T16:28:46.841Z,23.50
2024-05-09T16:31:14.795Z,23.40
2024-05-09T16:33:47.943Z,23.40
2024-05-09T16:36:18.116Z,23.30
2024-05-09T16:38:48.751Z,23.30
2024-05-09T16:41:16.736Z,23.20
2024-05-09T16:43:47.126Z,23.10
2024-05-09T16:46:15.384Z,23.10
2024-05-09T16:48:48.841Z,23.00
2024-05-09T16:51:16.747Z,23.00
2024-05-09T16:53:47.109Z,22.90
2024-05-09T16:56:14.936Z,22.90
2024-05-09T16:58:45.470Z,22.90
2024-05-09T17:01:13.733Z,22.90
2024-05-09T17:03:44.312Z,22.80
2024-05-09T17:06:17.611Z,22.80
2024-05-09T17:08:45.471Z,22.80
2024-05-09T17:11:22.607Z,22.80
2024-05-09T17:13:53.249Z,22.80
2024-05-09T17:16:40.354Z,22.70
2024-05-09T17:19:38.714Z,22.70
2024-05-09T17:24:57.707Z,22.50
2024-05-09T17:27:27.642Z,22.40
2024-05-09T17:30:21.597Z,22.40
2024-05-09T17:36:15.638Z,22.30
2024-05-09T17:38:48.192Z,22.20
2024-05-09T17:42:14.436Z,22.20
2024-05-09T17:45:00.846Z,22.10
2024-05-09T17:47:31.505Z,22.00
2024-05-09T17:50:01.548Z,22.00
2024-05-09T17:52:45.417Z,21.90
2024-05-09T17:55:23.358Z,21.90
2024-05-09T17:58:10.010Z,21.80
2024-05-09T18:00:46.660Z,21.80
2024-05-09T18:03:15.225Z,21.70
2024-05-09T18:05:49.027Z,21.70
2024-05-09T18:08:21.287Z,21.70
2024-05-09T18:11:06.502Z,21.60
2024-05-09T18:13:55.998Z,21.60
2024-05-09T18:16:35.221Z,21.50
2024-05-09T18:19:03.332Z,21.50
2024-05-09T18:21:33.904Z,21.40
2024-05-09T18:24:01.706Z,21.30
2024-05-09T18:26:58.960Z,21.30
2024-05-09T18:29:42.315Z,21.30
2024-05-09T18:32:45.855Z,21.20
2024-05-09T18:35:26.276Z,21.20
2024-05-09T18:38:32.691Z,21.10
2024-05-09T18:45:10.654Z,21.10
2024-05-09T18:48:10.108Z,20.90
2024-05-09T18:51:13.153Z,20.90
2024-05-09T18:53:42.248Z,20.90
2024-05-09T18:56:14.420Z,20.80
2024-05-09T18:58:42.206Z,20.70
2024-05-09T19:01:56.631Z,20.70
2024-05-09T19:05:23.510Z,20.70
2024-05-09T19:12:07.350Z,20.50
2024-05-09T19:14:37.926Z,20.40
2024-05-09T19:17:05.797Z,20.40
2024-05-09T19:24:06.938Z,20.30
2024-05-09T19:26:37.375Z,20.20
2024-05-09T19:29:17.454Z,20.10
2024-05-09T19:34:47.133Z,20.00
2024-05-09T19:37:39.545Z,20.10
2024-05-09T19:44:24.547Z,19.90
2024-05-09T19:51:00.560Z,19.80
2024-05-09T19:53:58.604Z,19.80
2024-05-09T19:56:59.550Z,19.60
2024-05-09T19:59:56.971Z,19.50
2024-05-09T20:02:27.766Z,19.40
2024-05-09T20:04:58.261Z,19.30
2024-05-09T20:07:28.749Z,19.20
2024-05-09T20:09:56.600Z,19.20
2024-05-09T20:12:27.054Z,19.10
2024-05-09T20:14:55.037Z,19.10
2024-05-09T20:17:55.975Z,19.00
2024-05-09T20:21:06.718Z,19.00
2024-05-09T20:23:56.268Z,18.90
2024-05-09T20:26:56.518Z,18.80
2024-05-09T20:29:24.266Z,18.80
2024-05-09T20:31:54.659Z,18.80
2024-05-09T20:34:22.610Z,18.80
2024-05-09T20:36:55.761Z,18.70
2024-05-09T20:39:26.751Z,18.70
2024-05-09T20:41:58.028Z,18.60
2024-05-09T20:44:58.513Z,18.60
2024-05-09T20:51:41.343Z,18.40
2024-05-09T20:54:11.972Z,18.40
2024-05-09T20:56:42.457Z,18.40
2024-05-09T20:59:38.329Z,18.30
2024-05-09T21:02:09.166Z,18.30
2024-05-09T21:04:37.179Z,18.30
2024-05-09T21:07:17.277Z,18.20
2024-05-09T21:09:47.984Z,18.10
2024-05-09T21:12:18.490Z,18.00
2024-05-09T21:14:49.324Z,17.90
2024-05-09T21:17:20.042Z,17.90
2024-05-09T21:19:47.917Z,17.90
2024-05-09T21:22:18.681Z,17.80
2024-05-09T21:24:49.421Z,17.70
2024-05-09T21:27:27.178Z,17.70
2024-05-09T21:29:55.139Z,17.70
2024-05-09T21:32:25.616Z,17.60
2024-05-09T21:34:53.491Z,17.60
2024-05-09T21:37:23.972Z,17.60
2024-05-09T21:39:54.432Z,17.50
2024-05-09T21:42:24.856Z,17.40
2024-05-09T21:44:52.587Z,17.40
2024-05-09T21:47:26.385Z,17.40
2024-05-09T21:49:54.327Z,17.30
2024-05-09T21:52:24.698Z,17.20
2024-05-09T21:54:55.190Z,17.20
2024-05-09T21:57:25.641Z,17.10
2024-05-09T21:59:53.496Z,17.10
2024-05-09T22:02:26.671Z,17.10
2024-05-09T22:04:54.622Z,17.00
2024-05-09T22:07:25.149Z,17.00
2024-05-09T22:10:12.819Z,17.00
2024-05-09T22:12:51.416Z,17.00
2024-05-09T22:15:20.844Z,16.90
2024-05-09T22:17:52.171Z,16.90
2024-05-09T22:20:28.721Z,16.80
2024-05-09T22:23:09.085Z,16.80
2024-05-09T22:25:39.811Z,16.70
2024-05-09T22:28:14.345Z,16.70
2024-05-09T22:30:56.037Z,16.70
2024-05-09T22:33:38.558Z,16.60
2024-05-09T22:36:08.794Z,16.60
2024-05-09T22:38:39.455Z,16.60
2024-05-09T22:41:10.488Z,16.60
2024-05-09T22:43:41.040Z,16.50
2024-05-09T22:46:15.793Z,16.50
2024-05-09T22:49:04.306Z,16.50
2024-05-09T22:51:56.367Z,16.40
2024-05-09T22:54:37.443Z,16.40
2024-05-09T22:57:10.202Z,16.30
2024-05-09T22:59:51.151Z,16.40
2024-05-09T23:02:25.322Z,16.40
2024-05-09T23:08:13.411Z,16.40
2024-05-09T23:11:16.612Z,16.40
2024-05-09T23:14:06.704Z,16.30
2024-05-09T23:19:55.550Z,16.20
2024-05-09T23:22:32.592Z,16.10
2024-05-09T23:25:03.277Z,16.10
2024-05-09T23:27:34.741Z,16.10
2024-05-09T23:30:28.270Z,16.00
2024-05-09T23:33:02.579Z,16.00
2024-05-09T23:35:33.078Z,16.00
2024-05-09T23:38:00.879Z,16.00
2024-05-09T23:40:38.479Z,15.90
2024-05-09T23:43:09.219Z,15.90
2024-05-09T23:45:57.181Z,15.80
2024-05-09T23:48:39.474Z,15.80
2024-05-09T23:51:10.006Z,15.80
2024-05-09T23:53:37.834Z,15.80
2024-05-09T23:56:09.158Z,15.90
2024-05-09T23:58:36.991Z,15.90
